Aviation Digital Data Service (ADDS)

Output produced by METARs form (1451 UTC 16 January 2018)
found at http://aviationweather.gov/adds/metars/
 
KARA 161124Z 1612/1712 34008KT P6SM VCSH BKN060 
     FM161400 01015G21KT P6SM -RA OVC010 
     FM161800 01018G25KT P6SM -SNPL OVC007 
     FM170100 01014G20KT P6SM OVC015 
     FM170600 01012G18KT P6SM BKN050